createdAt,value
2018-06-03T00:01:15.756Z,54.80
2018-06-03T00:03:43.954Z,59.40
2018-06-03T00:06:12.036Z,55.80
2018-06-03T00:08:40.140Z,52.50
2018-06-03T00:11:08.236Z,56.27
2018-06-03T00:13:36.301Z,57.77
2018-06-03T00:16:04.375Z,50.07
2018-06-03T00:18:32.531Z,58.60
2018-06-03T00:21:12.252Z,53.37
2018-06-03T00:23:40.297Z,51.03
2018-06-03T00:26:08.438Z,52.60
2018-06-03T00:28:36.539Z,55.77
2018-06-03T00:31:04.612Z,54.77
2018-06-03T00:33:32.825Z,55.40
2018-06-03T00:36:12.381Z,59.53
2018-06-03T00:38:40.487Z,55.33
2018-06-03T00:41:08.685Z,55.47
2018-06-03T00:43:36.757Z,61.53
2018-06-03T00:46:04.882Z,61.77
2018-06-03T00:48:33.099Z,63.60
2018-06-03T00:51:01.203Z,59.67
2018-06-03T00:53:29.328Z,57.03
2018-06-03T00:55:57.501Z,63.77
2018-06-03T00:58:25.408Z,57.93
2018-06-03T01:00:53.479Z,60.70
2018-06-03T01:03:21.614Z,67.10
2018-06-03T01:05:49.767Z,65.83
2018-06-03T01:08:17.834Z,67.80
2018-06-03T01:10:46.040Z,65.63
2018-06-03T01:13:14.210Z,61.40
2018-06-03T01:15:42.286Z,64.90
2018-06-03T01:18:10.368Z,61.43
2018-06-03T01:20:38.555Z,60.03
2018-06-03T01:23:06.685Z,62.53
2018-06-03T01:25:34.607Z,61.20
2018-06-03T01:28:02.755Z,54.90
2018-06-03T01:30:30.860Z,61.33
2018-06-03T01:32:58.992Z,61.20
2018-06-03T01:35:27.332Z,65.27
2018-06-03T01:37:55.587Z,63.80
2018-06-03T01:40:23.674Z,62.43
2018-06-03T01:42:51.826Z,62.83
2018-06-03T01:45:19.984Z,62.30
2018-06-03T01:47:48.052Z,65.57
2018-06-03T01:50:15.920Z,66.53
2018-06-03T01:52:44.075Z,64.67
2018-06-03T01:55:12.160Z,64.03
2018-06-03T01:57:40.226Z,62.73
2018-06-03T02:00:08.334Z,64.00
2018-06-03T02:02:36.431Z,65.30
2018-06-03T02:05:04.528Z,61.10
2018-06-03T02:07:32.684Z,64.00
2018-06-03T02:10:00.767Z,58.27
2018-06-03T02:12:28.842Z,64.57
2018-06-03T02:14:57.030Z,65.70
2018-06-03T02:17:25.091Z,64.23
2018-06-03T02:19:53.265Z,64.50
2018-06-03T02:22:21.483Z,68.67
2018-06-03T02:24:49.624Z,63.17
2018-06-03T02:27:17.741Z,65.93
2018-06-03T02:29:45.882Z,64.37
2018-06-03T02:32:13.992Z,64.57
2018-06-03T02:34:42.103Z,68.27
2018-06-03T02:37:10.252Z,67.60
2018-06-03T02:39:38.351Z,71.20
2018-06-03T02:42:06.465Z,60.47
2018-06-03T02:44:34.340Z,70.23
2018-06-03T02:47:02.472Z,62.53
2018-06-03T02:49:30.545Z,71.87
2018-06-03T02:51:58.712Z,64.90
2018-06-03T02:54:26.865Z,67.27
2018-06-03T02:56:54.968Z,71.70
2018-06-03T02:59:23.041Z,67.90
2018-06-03T03:01:51.213Z,78.17
2018-06-03T03:04:19.297Z,68.90
2018-06-03T03:06:47.357Z,76.00
2018-06-03T03:09:15.691Z,74.37
2018-06-03T03:11:43.754Z,70.67
2018-06-03T03:14:11.861Z,68.40
2018-06-03T03:16:40.040Z,78.73
2018-06-03T03:19:08.132Z,68.83
2018-06-03T03:21:36.202Z,72.83
2018-06-03T03:24:04.355Z,76.63
2018-06-03T03:26:32.419Z,71.33
2018-06-03T03:29:00.482Z,76.60
2018-06-03T03:31:28.424Z,74.57
2018-06-03T03:33:56.487Z,70.00
2018-06-03T03:36:24.561Z,67.90
2018-06-03T03:38:52.777Z,66.50
2018-06-03T03:41:20.856Z,70.80
2018-06-03T03:43:48.964Z,62.13
2018-06-03T03:46:17.103Z,65.67
2018-06-03T03:48:45.215Z,72.97
2018-06-03T03:51:13.301Z,70.83
2018-06-03T03:53:41.488Z,72.07
2018-06-03T03:56:09.605Z,63.13
2018-06-03T03:58:37.740Z,73.10
2018-06-03T04:01:05.935Z,71.87
2018-06-03T04:03:34.012Z,67.20
2018-06-03T04:06:02.104Z,57.97
2018-06-03T04:08:30.276Z,69.50
2018-06-03T04:10:58.393Z,66.77
2018-06-03T04:13:26.494Z,64.83
2018-06-03T04:15:54.686Z,67.87
2018-06-03T04:18:22.808Z,60.53
2018-06-03T04:20:50.920Z,64.67
2018-06-03T04:23:19.109Z,68.37
2018-06-03T04:25:47.252Z,67.97
2018-06-03T04:28:15.377Z,63.80
2018-06-03T04:30:43.876Z,61.30
2018-06-03T04:33:12.076Z,68.83
2018-06-03T04:35:40.177Z,63.23
2018-06-03T04:38:08.253Z,57.03
2018-06-03T04:40:36.530Z,62.50
2018-06-03T04:43:04.710Z,55.53
2018-06-03T04:45:33.371Z,56.37
2018-06-03T04:48:01.624Z,60.70
2018-06-03T04:50:29.705Z,63.10
2018-06-03T04:52:57.800Z,59.53
2018-06-03T04:55:26.596Z,60.60
2018-06-03T04:57:54.772Z,60.00
2018-06-03T05:00:22.870Z,57.73
2018-06-03T05:02:51.002Z,58.33
2018-06-03T05:05:19.102Z,60.20
2018-06-03T05:07:47.232Z,52.30
2018-06-03T05:10:15.341Z,57.37
2018-06-03T05:12:43.216Z,58.80
2018-06-03T05:15:12.793Z,56.87
2018-06-03T05:17:41.012Z,54.83
2018-06-03T05:20:08.913Z,63.93
2018-06-03T05:22:37.002Z,52.97
2018-06-03T05:25:05.165Z,52.27
2018-06-03T05:27:33.323Z,56.80
2018-06-03T05:30:01.434Z,49.43
2018-06-03T05:32:29.521Z,54.13
2018-06-03T05:34:57.620Z,53.93
2018-06-03T05:37:25.712Z,55.83
2018-06-03T05:39:53.829Z,52.40
2018-06-03T05:42:21.914Z,50.60
2018-06-03T05:44:50.082Z,50.67
2018-06-03T05:47:18.175Z,49.67
2018-06-03T05:49:46.331Z,51.63
2018-06-03T05:52:14.407Z,50.20
2018-06-03T05:54:42.495Z,51.73
2018-06-03T05:57:10.626Z,57.27
2018-06-03T05:59:39.067Z,48.17
2018-06-03T06:02:07.180Z,52.00
2018-06-03T06:04:35.324Z,50.13
2018-06-03T06:07:03.467Z,45.80
2018-06-03T06:09:31.576Z,52.33
2018-06-03T06:11:59.686Z,47.07
2018-06-03T06:14:27.758Z,54.03
2018-06-03T06:16:55.953Z,49.77
2018-06-03T06:19:24.061Z,50.07
2018-06-03T06:21:52.172Z,51.00
2018-06-03T06:24:20.883Z,48.90
2018-06-03T06:26:49.071Z,51.33
2018-06-03T06:29:17.124Z,46.47
2018-06-03T06:31:45.227Z,47.60
2018-06-03T06:34:13.308Z,45.07
2018-06-03T06:36:41.390Z,51.83
2018-06-03T06:39:09.731Z,51.50
2018-06-03T06:41:38.165Z,51.07
2018-06-03T06:44:06.253Z,51.67
2018-06-03T06:46:34.338Z,49.27
2018-06-03T06:49:02.468Z,47.73
2018-06-03T06:51:30.556Z,50.90
2018-06-03T06:53:58.675Z,50.50
2018-06-03T06:56:26.807Z,45.90
2018-06-03T06:58:54.976Z,47.23
2018-06-03T07:01:23.159Z,46.67
2018-06-03T07:03:51.328Z,44.83
2018-06-03T07:06:19.496Z,46.00
2018-06-03T07:08:51.118Z,46.47
2018-06-03T07:11:19.338Z,47.40
2018-06-03T07:13:47.650Z,50.17
2018-06-03T07:16:15.763Z,51.13
2018-06-03T07:18:43.876Z,48.63
2018-06-03T07:21:12.093Z,49.00
2018-06-03T07:23:40.197Z,52.37
2018-06-03T07:26:08.289Z,47.20
2018-06-03T07:28:36.708Z,55.73
2018-06-03T07:31:05.251Z,54.33
2018-06-03T07:33:33.394Z,47.10
2018-06-03T07:36:01.526Z,52.00
2018-06-03T07:38:29.722Z,45.50
2018-06-03T07:40:57.945Z,44.23
2018-06-03T07:43:27.067Z,44.90
2018-06-03T07:45:56.658Z,51.27
2018-06-03T07:48:24.607Z,49.73
2018-06-03T07:50:52.752Z,52.43
2018-06-03T07:53:20.963Z,54.47
2018-06-03T07:55:49.132Z,62.57
2018-06-03T07:58:17.232Z,57.90
2018-06-03T08:00:45.318Z,56.97
2018-06-03T08:03:13.416Z,70.20
2018-06-03T08:05:41.510Z,55.67
2018-06-03T08:08:09.629Z,57.80
2018-06-03T08:10:37.734Z,60.47
2018-06-03T08:13:05.943Z,53.73
2018-06-03T08:15:34.023Z,57.03
2018-06-03T08:18:01.910Z,56.03
2018-06-03T08:20:30.071Z,56.93
2018-06-03T08:22:58.152Z,54.27
2018-06-03T08:25:26.263Z,54.93
2018-06-03T08:27:54.324Z,56.33
2018-06-03T08:30:22.407Z,56.63
2018-06-03T08:32:50.573Z,51.10
2018-06-03T08:35:18.784Z,55.57
2018-06-03T08:37:46.868Z,54.00
2018-06-03T08:40:15.169Z,51.40
2018-06-03T08:42:43.067Z,48.90
2018-06-03T08:45:11.164Z,58.73
2018-06-03T08:47:39.277Z,59.80
2018-06-03T08:50:07.421Z,57.93
2018-06-03T08:52:35.486Z,58.47
2018-06-03T08:55:03.618Z,57.30
2018-06-03T08:57:31.728Z,59.97
2018-06-03T08:59:59.846Z,54.90
2018-06-03T09:02:27.975Z,57.37
2018-06-03T09:04:56.067Z,56.90
2018-06-03T09:07:24.156Z,60.50
2018-06-03T09:09:52.268Z,65.90
2018-06-03T09:12:20.369Z,63.50
2018-06-03T09:14:48.556Z,61.13
2018-06-03T09:17:16.719Z,66.63
2018-06-03T09:19:46.559Z,62.00
2018-06-03T09:22:14.637Z,67.73
2018-06-03T09:24:42.789Z,66.63
2018-06-03T09:27:12.108Z,71.27
2018-06-03T09:29:40.208Z,65.40
2018-06-03T09:32:08.419Z,67.87
2018-06-03T09:34:36.624Z,73.53
2018-06-03T09:37:04.724Z,71.70
2018-06-03T09:39:32.943Z,74.23
2018-06-03T09:42:01.069Z,63.93
2018-06-03T09:44:29.145Z,64.87
2018-06-03T09:46:57.618Z,69.30
2018-06-03T09:49:25.720Z,63.90
2018-06-03T09:51:53.831Z,63.97
2018-06-03T09:54:24.506Z,58.37
2018-06-03T09:56:52.963Z,61.20
2018-06-03T09:59:22.024Z,53.83
2018-06-03T10:01:50.212Z,51.03
2018-06-03T10:04:18.416Z,46.97
2018-06-03T10:06:46.579Z,45.83
2018-06-03T10:09:14.713Z,39.90
2018-06-03T10:11:42.935Z,43.23
2018-06-03T10:14:11.100Z,40.20
2018-06-03T10:16:39.695Z,38.87
2018-06-03T10:19:08.184Z,41.50
2018-06-03T10:21:36.485Z,43.27
2018-06-03T10:24:04.619Z,38.17
2018-06-03T10:26:32.765Z,36.63
2018-06-03T10:29:00.871Z,33.40
2018-06-03T10:31:29.027Z,36.93
2018-06-03T10:33:57.250Z,34.87
2018-06-03T10:36:25.185Z,32.37
2018-06-03T10:38:53.283Z,31.60
2018-06-03T10:41:21.522Z,35.10
2018-06-03T10:43:49.981Z,31.27
2018-06-03T10:46:18.363Z,31.63
2018-06-03T10:48:50.097Z,32.07
2018-06-03T10:51:18.227Z,30.23
2018-06-03T10:53:46.389Z,30.37
2018-06-03T10:56:17.964Z,31.00
2018-06-03T10:58:47.090Z,31.63
2018-06-03T11:01:15.333Z,35.07
2018-06-03T11:03:43.648Z,30.93
2018-06-03T11:06:11.877Z,33.07
2018-06-03T11:08:39.959Z,33.30
2018-06-03T11:11:08.091Z,34.20
2018-06-03T11:13:36.218Z,29.90
2018-06-03T11:16:04.361Z,38.67
2018-06-03T11:18:32.499Z,33.70
2018-06-03T11:21:00.595Z,33.77
2018-06-03T11:23:28.712Z,31.57
2018-06-03T11:25:57.019Z,33.97
2018-06-03T11:28:25.151Z,35.07
2018-06-03T11:30:53.400Z,33.20
2018-06-03T11:33:21.540Z,37.90
2018-06-03T11:35:51.558Z,35.77
2018-06-03T11:38:19.496Z,31.70
2018-06-03T11:40:47.888Z,28.20
2018-06-03T11:43:16.048Z,32.80
2018-06-03T11:45:44.224Z,24.60
2018-06-03T11:48:12.396Z,26.53
2018-06-03T11:50:40.494Z,27.30
2018-06-03T11:53:08.683Z,24.40
2018-06-03T11:55:37.708Z,26.97
2018-06-03T11:58:42.809Z,23.10
2018-06-03T12:01:10.878Z,25.00
2018-06-03T12:03:41.900Z,24.03
2018-06-03T12:06:10.068Z,24.17
2018-06-03T12:08:38.206Z,24.00
2018-06-03T12:11:06.212Z,25.10
2018-06-03T12:13:34.414Z,23.13
2018-06-03T12:16:02.481Z,23.37
2018-06-03T12:18:30.730Z,25.67
2018-06-03T12:20:59.543Z,24.80
2018-06-03T12:23:34.640Z,22.93
2018-06-03T12:26:02.826Z,21.73
2018-06-03T12:28:31.021Z,22.20
2018-06-03T12:31:00.458Z,17.57
2018-06-03T12:33:28.794Z,21.47
2018-06-03T12:35:57.153Z,23.07
2018-06-03T12:38:25.509Z,23.23
2018-06-03T12:40:53.613Z,17.90
2018-06-03T12:43:22.115Z,20.20
2018-06-03T12:45:50.332Z,19.53
2018-06-03T12:48:18.641Z,15.40
2018-06-03T12:50:46.915Z,19.87
2018-06-03T12:53:15.027Z,17.77
2018-06-03T12:55:43.280Z,16.33
2018-06-03T12:58:11.997Z,16.57
2018-06-03T13:00:40.538Z,14.80
2018-06-03T13:03:08.646Z,16.80
2018-06-03T13:05:36.780Z,20.87
2018-06-03T13:08:04.982Z,22.63
2018-06-03T13:10:33.146Z,13.80
2018-06-03T13:13:01.521Z,13.70
2018-06-03T13:15:29.715Z,14.17
2018-06-03T13:17:57.985Z,14.07
2018-06-03T13:20:26.455Z,13.50
2018-06-03T13:22:54.570Z,12.20
2018-06-03T13:25:22.800Z,13.03
2018-06-03T13:27:50.966Z,13.53
2018-06-03T13:30:19.221Z,12.23
2018-06-03T13:32:47.583Z,11.33
2018-06-03T13:35:19.845Z,9.47
2018-06-03T13:37:48.001Z,10.53
2018-06-03T13:40:16.147Z,10.63
2018-06-03T13:42:44.403Z,8.33
2018-06-03T13:45:12.516Z,10.43
2018-06-03T13:47:40.611Z,8.57
2018-06-03T13:50:08.753Z,7.73
2018-06-03T13:52:36.910Z,7.93
2018-06-03T13:55:04.827Z,7.33
2018-06-03T13:57:33.020Z,9.40
2018-06-03T14:00:01.077Z,7.37
2018-06-03T14:02:29.147Z,7.70
2018-06-03T14:04:57.300Z,7.10
2018-06-03T14:07:25.449Z,6.60
2018-06-03T14:09:53.830Z,6.40
2018-06-03T14:12:21.944Z,6.17
2018-06-03T14:14:50.112Z,7.13
2018-06-03T14:17:18.302Z,6.97
2018-06-03T14:19:46.528Z,6.60
2018-06-03T14:22:14.605Z,7.50
2018-06-03T14:24:42.817Z,7.20
2018-06-03T14:27:10.963Z,6.77
2018-06-03T14:29:39.181Z,8.07
2018-06-03T14:32:07.440Z,8.60
2018-06-03T14:34:35.541Z,9.30
2018-06-03T14:37:03.805Z,9.53
2018-06-03T14:39:32.120Z,7.80
2018-06-03T14:42:00.204Z,7.73
2018-06-03T14:44:28.289Z,7.63
2018-06-03T14:46:56.275Z,6.73
2018-06-03T14:49:24.411Z,7.87
2018-06-03T14:51:52.784Z,8.83
2018-06-03T14:54:20.897Z,10.47
2018-06-03T14:56:49.278Z,8.23
2018-06-03T14:59:17.855Z,8.00
2018-06-03T15:01:45.949Z,6.40
2018-06-03T15:04:14.140Z,10.13
2018-06-03T15:06:42.228Z,11.53
2018-06-03T15:09:10.739Z,8.87
2018-06-03T15:11:38.870Z,8.13
2018-06-03T15:14:06.916Z,8.63
2018-06-03T15:16:35.153Z,9.43
2018-06-03T15:19:03.238Z,9.47
2018-06-03T15:21:31.424Z,12.77
2018-06-03T15:23:59.563Z,8.07
2018-06-03T15:26:27.680Z,11.53
2018-06-03T15:28:55.998Z,14.73
2018-06-03T15:31:23.915Z,14.87
2018-06-03T15:33:52.047Z,22.73
2018-06-03T15:36:20.268Z,12.23
2018-06-03T15:38:48.415Z,13.43
2018-06-03T15:41:16.522Z,13.80
2018-06-03T15:43:44.615Z,11.07
2018-06-03T15:46:12.784Z,12.73
2018-06-03T15:48:40.837Z,13.00
2018-06-03T15:51:09.024Z,11.93
2018-06-03T15:53:37.355Z,13.97
2018-06-03T15:56:05.470Z,15.47
2018-06-03T15:58:33.811Z,13.10
2018-06-03T16:01:02.340Z,14.60
2018-06-03T16:03:30.545Z,16.73
2018-06-03T16:05:58.815Z,17.50
2018-06-03T16:08:26.733Z,16.27
2018-06-03T16:10:54.847Z,14.77
2018-06-03T16:13:23.457Z,13.37
2018-06-03T16:15:51.696Z,17.90
2018-06-03T16:18:19.798Z,17.50
2018-06-03T16:20:48.097Z,16.97
2018-06-03T16:23:16.265Z,16.90
2018-06-03T16:25:44.807Z,18.30
2018-06-03T16:28:13.446Z,14.53
2018-06-03T16:30:41.667Z,17.00
2018-06-03T16:33:10.000Z,16.60
2018-06-03T16:35:38.293Z,15.43
2018-06-03T16:38:06.616Z,13.23
2018-06-03T16:40:36.645Z,14.50
2018-06-03T16:43:07.185Z,15.67
2018-06-03T16:45:35.629Z,15.77
2018-06-03T16:48:03.719Z,14.47
2018-06-03T16:50:31.814Z,13.67
2018-06-03T16:53:00.330Z,14.93
2018-06-03T16:55:28.705Z,14.10
2018-06-03T16:57:56.904Z,13.97
2018-06-03T17:00:25.027Z,13.90
2018-06-03T17:02:53.316Z,12.57
2018-06-03T17:05:21.842Z,15.33
2018-06-03T17:07:50.047Z,14.63
2018-06-03T17:10:19.238Z,13.37
2018-06-03T17:12:47.624Z,15.90
2018-06-03T17:15:16.048Z,14.20
2018-06-03T17:17:44.412Z,16.57
2018-06-03T17:20:12.657Z,14.00
2018-06-03T17:22:40.739Z,14.33
2018-06-03T17:25:08.827Z,16.23
2018-06-03T17:27:37.270Z,16.50
2018-06-03T17:30:05.379Z,13.37
2018-06-03T17:32:33.554Z,14.90
2018-06-03T17:35:01.662Z,14.53
2018-06-03T17:37:29.766Z,13.83
2018-06-03T17:39:57.899Z,14.03
2018-06-03T17:42:26.077Z,14.80
2018-06-03T17:44:54.200Z,12.40
2018-06-03T17:47:22.286Z,13.60
2018-06-03T17:49:50.396Z,16.27
2018-06-03T17:52:18.847Z,14.03
2018-06-03T17:54:47.311Z,13.07
2018-06-03T17:57:15.742Z,14.47
2018-06-03T17:59:43.991Z,12.57
2018-06-03T18:02:12.154Z,14.07
2018-06-03T18:04:40.358Z,13.00
2018-06-03T18:07:08.472Z,14.30
2018-06-03T18:09:36.637Z,14.07
2018-06-03T18:12:05.563Z,12.27
2018-06-03T18:14:33.787Z,13.77
2018-06-03T18:17:02.026Z,14.30
2018-06-03T18:19:30.070Z,12.70
2018-06-03T18:21:58.032Z,12.30
2018-06-03T18:24:26.194Z,19.83
2018-06-03T18:26:54.284Z,13.37
2018-06-03T18:29:22.474Z,16.40
2018-06-03T18:31:50.557Z,14.50
2018-06-03T18:34:18.647Z,13.83
2018-06-03T18:36:46.867Z,15.10
2018-06-03T18:39:15.024Z,12.53
2018-06-03T18:41:43.445Z,14.90
2018-06-03T18:44:12.020Z,12.57
2018-06-03T18:46:40.106Z,12.90
2018-06-03T18:49:08.256Z,14.00
2018-06-03T18:51:37.786Z,14.10
2018-06-03T18:54:05.983Z,14.43
2018-06-03T18:56:34.208Z,13.37
2018-06-03T18:59:02.307Z,15.90
2018-06-03T19:01:30.449Z,13.97
2018-06-03T19:03:58.711Z,14.17
2018-06-03T19:06:26.899Z,14.83
2018-06-03T19:08:55.058Z,14.20
2018-06-03T19:11:23.245Z,14.67
2018-06-03T19:13:51.377Z,17.93
2018-06-03T19:16:19.573Z,13.50
2018-06-03T19:18:47.764Z,13.90
2018-06-03T19:21:15.897Z,14.70
2018-06-03T19:23:44.000Z,14.07
2018-06-03T19:26:12.175Z,15.60
2018-06-03T19:28:40.312Z,14.13
2018-06-03T19:31:08.463Z,13.37
2018-06-03T19:33:36.640Z,17.90
2018-06-03T19:36:04.784Z,14.53
2018-06-03T19:38:33.109Z,16.77
2018-06-03T19:41:01.445Z,15.87
2018-06-03T19:43:29.575Z,14.37
2018-06-03T19:45:57.687Z,15.50
2018-06-03T19:48:25.826Z,15.97
2018-06-03T19:50:54.118Z,16.17
2018-06-03T19:53:22.239Z,14.77
2018-06-03T19:55:50.374Z,14.17
2018-06-03T19:58:19.643Z,14.53
2018-06-03T20:00:47.711Z,16.00
2018-06-03T20:03:15.800Z,14.83
2018-06-03T20:05:43.898Z,16.17
2018-06-03T20:08:12.001Z,20.97
2018-06-03T20:10:40.277Z,18.53
2018-06-03T20:13:08.375Z,21.63
2018-06-03T20:15:36.509Z,15.70
2018-06-03T20:18:04.611Z,16.33
2018-06-03T20:20:32.731Z,15.57
2018-06-03T20:23:01.103Z,17.03
2018-06-03T20:25:29.251Z,14.90
2018-06-03T20:27:57.390Z,14.10
2018-06-03T20:30:25.576Z,15.37
2018-06-03T20:32:53.626Z,18.57
2018-06-03T20:35:21.912Z,16.77
2018-06-03T20:37:50.048Z,18.67
2018-06-03T20:40:18.059Z,19.17
2018-06-03T20:42:46.243Z,19.47
2018-06-03T20:45:14.454Z,21.10
2018-06-03T20:47:42.535Z,17.90
2018-06-03T20:50:10.616Z,18.57
2018-06-03T20:52:38.625Z,16.57
2018-06-03T20:55:06.707Z,20.00
2018-06-03T20:57:34.903Z,18.37
2018-06-03T21:00:03.008Z,17.30
2018-06-03T21:02:31.011Z,17.10
2018-06-03T21:04:59.076Z,16.77
2018-06-03T21:07:27.199Z,18.57
2018-06-03T21:09:55.356Z,18.83
2018-06-03T21:12:23.474Z,21.27
2018-06-03T21:14:51.779Z,19.27
2018-06-03T21:17:19.855Z,17.20
2018-06-03T21:19:48.016Z,19.30
2018-06-03T21:22:16.144Z,19.50
2018-06-03T21:24:44.250Z,17.83
2018-06-03T21:27:12.378Z,21.93
2018-06-03T21:29:40.486Z,23.33
2018-06-03T21:32:08.627Z,20.83
2018-06-03T21:34:36.754Z,21.03
2018-06-03T21:37:05.086Z,19.57
2018-06-03T21:39:33.187Z,20.67
2018-06-03T21:42:01.370Z,18.10
2018-06-03T21:44:29.486Z,21.17
2018-06-03T21:46:57.603Z,19.90
2018-06-03T21:49:25.789Z,19.53
2018-06-03T21:51:53.711Z,19.37
2018-06-03T21:54:21.898Z,21.53
2018-06-03T21:56:50.050Z,19.63
2018-06-03T21:59:18.162Z,21.57
2018-06-03T22:01:46.360Z,18.00
2018-06-03T22:04:14.467Z,21.90
2018-06-03T22:06:42.683Z,19.33
2018-06-03T22:09:10.777Z,20.33
2018-06-03T22:11:39.019Z,17.70
2018-06-03T22:14:07.176Z,19.57
2018-06-03T22:16:35.323Z,19.80
2018-06-03T22:19:03.446Z,20.23
2018-06-03T22:21:31.567Z,19.23
2018-06-03T22:23:59.800Z,21.93
2018-06-03T22:26:27.905Z,23.13
2018-06-03T22:28:56.124Z,22.20
2018-06-03T22:31:24.351Z,21.03
2018-06-03T22:33:52.449Z,19.33
2018-06-03T22:36:20.551Z,22.07
2018-06-03T22:38:48.686Z,20.57
2018-06-03T22:41:16.917Z,20.13
2018-06-03T22:43:45.029Z,23.60
2018-06-03T22:46:13.248Z,21.97
2018-06-03T22:48:41.423Z,24.07
2018-06-03T22:51:09.567Z,20.20
2018-06-03T22:53:37.675Z,20.00
2018-06-03T22:56:05.768Z,19.43
2018-06-03T22:58:34.015Z,21.00
2018-06-03T23:01:02.088Z,18.53
2018-06-03T23:03:30.227Z,18.03
2018-06-03T23:05:58.171Z,19.30
2018-06-03T23:08:26.267Z,20.03
2018-06-03T23:10:54.184Z,22.07
2018-06-03T23:13:22.246Z,19.33
2018-06-03T23:15:50.446Z,21.07
2018-06-03T23:18:18.575Z,20.43
2018-06-03T23:20:46.752Z,19.83
2018-06-03T23:23:14.894Z,21.17
2018-06-03T23:25:43.100Z,19.77
2018-06-03T23:28:11.249Z,19.17
2018-06-03T23:30:39.351Z,20.13
2018-06-03T23:33:07.665Z,20.53
2018-06-03T23:35:35.799Z,21.73
2018-06-03T23:38:03.871Z,21.33
2018-06-03T23:40:31.999Z,21.33
2018-06-03T23:43:00.188Z,22.33
2018-06-03T23:45:28.291Z,22.07
2018-06-03T23:47:56.195Z,21.17
2018-06-03T23:50:24.543Z,21.50
2018-06-03T23:52:52.639Z,21.50
2018-06-03T23:55:20.781Z,20.93
2018-06-03T23:57:48.886Z,22.17
